Thursday, February 22, 2018, 12:13 PM EST
Back to Local

KAUG, Augusta State Airport

Location: Augusta, ME, United States Lat: 44.317
Local Time: 12:13 PM EST (17:13 GMT) Lon: -69.8
Time Zone: US/Eastern Elev: 351 ft

Show me the last for .
Show Decoded

2018-02-22 11:53 METAR KAUG 221653Z AUTO 01003KT 10SM BKN120 01/M13 A3066 RMK AO2 SLP386
                 T00061128 =
2018-02-22 10:53 METAR KAUG 221553Z AUTO 35004KT 10SM BKN110 01/M12 A3066 RMK AO2 SLP386
                 T00061122 =
2018-02-22 09:53 METAR KAUG 221453Z AUTO 35009KT 10SM BKN110 01/M12 A3067 RMK AO2 SLP389
                 T00061122 53016 =
2018-02-22 08:53 METAR KAUG 221353Z AUTO 36008KT 10SM FEW120 00/M12 A3064 RMK AO2 SLP380
                 T00001117 =
2018-02-22 07:53 METAR KAUG 221253Z AUTO 35008KT 10SM FEW120 M01/M12 A3064 RMK AO2 SLP379
                 T10061117 =
2018-02-22 06:53 METAR KAUG 221153Z AUTO 36007KT 10SM OVC120 M01/M12 A3062 RMK AO2 SLP372
                 T10061117 10033 21006 53022 =
2018-02-22 05:53 METAR KAUG 221053Z AUTO 35012KT 10SM CLR 00/M12 A3059 RMK AO2 SLP362 T00001117 =
2018-02-22 04:53 METAR KAUG 220953Z AUTO 35007KT 10SM CLR 00/M11 A3058 RMK AO2 SLP357 T00001106 =
2018-02-22 03:53 METAR KAUG 220853Z AUTO 34007KT 10SM CLR 01/M08 A3055 RMK AO2 SLP349 T00061083
                 51029 =
2018-02-22 02:53 METAR KAUG 220753Z AUTO 35008KT 10SM CLR 01/M06 A3052 RMK AO2 SLP337 T00111061 =
2018-02-22 01:53 METAR KAUG 220653Z AUTO 35006KT 10SM CLR 02/M06 A3051 RMK AO2 SLP334 T00221061 =
2018-02-22 00:53 METAR KAUG 220553Z AUTO 32011G17KT 10SM CLR 04/M06 A3047 RMK AO2 SLP321
                 T00391056 10122 20039 51055 =
2018-02-21 23:53 METAR KAUG 220453Z AUTO 31014G20KT 10SM BKN100 04/M05 A3042 RMK AO2 PK WND
                 32027/0401 SLP304 T00441050 401500017 =
2018-02-21 22:53 METAR KAUG 220353Z AUTO 31010KT 10SM OVC095 06/M04 A3037 RMK AO2 SLP287
                 T00611039 =
2018-02-21 21:53 METAR KAUG 220253Z AUTO 30009G18KT 10SM OVC090 08/M01 A3031 RMK AO2 SLP266
                 T00781006 51040 =
2018-02-21 20:53 METAR KAUG 220153Z AUTO 30008KT 10SM SCT090 09/01 A3028 RMK AO2 SLP256 T00890011
                 =
2018-02-21 19:53 METAR KAUG 220053Z AUTO 32013KT 10SM SCT075 10/02 A3023 RMK AO2 SLP239 T01000017
                 =
2018-02-21 18:53 METAR KAUG 212353Z AUTO 32011KT 10SM OVC070 12/05 A3019 RMK AO2 PK WND
                 31029/2311 SLP224 T01220050 10150 20056 51066 =
2018-02-21 17:53 METAR KAUG 212253Z AUTO 30013G23KT 10SM FEW030 OVC055 14/08 A3013 RMK AO2 PK WND
                 29027/2236 SLP206 T01390083 =
2018-02-21 16:53 METAR KAUG 212153Z AUTO 30009G14KT 10SM BKN050 BKN060 OVC080 13/08 A3007 RMK AO2
                 PRESRR SLP184 T01280083 =
2018-02-21 15:53 METAR KAUG 212053Z AUTO 03003KT 10SM CLR 11/08 A2999 RMK AO2 SLP158 T01110078
                 55009 =
2018-02-21 14:53 METAR KAUG 211953Z AUTO VRB03KT 10SM CLR 12/08 A2997 RMK AO2 SLP151 T01170083 =
2018-02-21 13:53 METAR KAUG 211853Z AUTO 16005KT 6SM BR SCT002 07/06 A2999 RMK AO2 SLP158
                 T00670061 =
2018-02-21 13:44 METAR KAUG 211844Z AUTO 13003KT 3SM BR BKN002 06/06 A3000 RMK AO2 T00610061 =
2018-02-21 13:40 METAR KAUG 211840Z AUTO 14003KT 1SM BR VV002 06/06 A3000 RMK AO2 T00610061 =
2018-02-21 12:53 METAR KAUG 211753Z AUTO 16005KT 1/4SM FG VV002 06/06 A3002 RMK AO2 SLP167
                 T00560056 10056 20017 58023 =
2018-02-21 12:19 METAR KAUG 211719Z AUTO 00000KT 1/4SM FG VV002 05/05 A3004 RMK AO2 T00500050 =

Support USWX by starting your Amazon purchase here.